sensor_id;sensor_type;location;lat;lon;timestamp;pressure;altitude;pressure_sealevel;temperature;humidity
12536;BME280;6334;48.696;2.114;2022-09-09T00:02:24;99272.25;;;16.30;92.93
12536;BME280;6334;48.696;2.114;2022-09-09T00:07:46;99272.55;;;16.19;93.67
12536;BME280;6334;48.696;2.114;2022-09-09T00:10:39;99275.03;;;16.24;94.18
12536;BME280;6334;48.696;2.114;2022-09-09T00:16:04;99272.62;;;16.09;94.63
12536;BME280;6334;48.696;2.114;2022-09-09T00:22:25;99271.69;;;16.18;94.95
12536;BME280;6334;48.696;2.114;2022-09-09T00:24:26;99269.39;;;16.11;95.41
12536;BME280;6334;48.696;2.114;2022-09-09T00:27:01;99258.75;;;16.17;95.16
12536;BME280;6334;48.696;2.114;2022-09-09T00:29:35;99263.59;;;16.11;95.27
12536;BME280;6334;48.696;2.114;2022-09-09T00:32:13;99261.24;;;16.11;95.55
12536;BME280;6334;48.696;2.114;2022-09-09T00:34:51;99268.32;;;16.00;96.07
12536;BME280;6334;48.696;2.114;2022-09-09T00:37:20;99270.28;;;16.21;95.50
12536;BME280;6334;48.696;2.114;2022-09-09T00:39:51;99265.43;;;16.27;94.84
12536;BME280;6334;48.696;2.114;2022-09-09T00:42:25;99267.63;;;16.23;94.89
12536;BME280;6334;48.696;2.114;2022-09-09T00:47:52;99262.13;;;16.24;95.12
12536;BME280;6334;48.696;2.114;2022-09-09T00:58:32;99250.83;;;16.06;95.84
12536;BME280;6334;48.696;2.114;2022-09-09T01:01:03;99246.08;;;16.13;95.70
12536;BME280;6334;48.696;2.114;2022-09-09T01:03:54;99251.59;;;16.16;95.78
12536;BME280;6334;48.696;2.114;2022-09-09T01:17:17;99228.62;;;15.99;96.56
12536;BME280;6334;48.696;2.114;2022-09-09T01:20:00;99238.89;;;15.95;96.60
12536;BME280;6334;48.696;2.114;2022-09-09T01:22:34;99237.70;;;16.07;96.64
12536;BME280;6334;48.696;2.114;2022-09-09T01:27:32;99227.45;;;16.00;97.23
12536;BME280;6334;48.696;2.114;2022-09-09T01:30:12;99232.67;;;15.87;97.22
12536;BME280;6334;48.696;2.114;2022-09-09T01:32:41;99229.86;;;15.83;97.56
12536;BME280;6334;48.696;2.114;2022-09-09T01:37:50;99233.09;;;15.76;98.57
12536;BME280;6334;48.696;2.114;2022-09-09T01:40:20;99235.69;;;15.90;97.72
12536;BME280;6334;48.696;2.114;2022-09-09T01:42:51;99234.84;;;15.85;98.22
12536;BME280;6334;48.696;2.114;2022-09-09T01:45:21;99242.86;;;15.96;97.88
12536;BME280;6334;48.696;2.114;2022-09-09T01:47:52;99243.68;;;15.99;98.83
12536;BME280;6334;48.696;2.114;2022-09-09T01:50:22;99246.64;;;15.85;98.82
12536;BME280;6334;48.696;2.114;2022-09-09T01:52:54;99246.89;;;15.87;98.68
12536;BME280;6334;48.696;2.114;2022-09-09T01:55:27;99246.20;;;15.92;98.53
12536;BME280;6334;48.696;2.114;2022-09-09T02:00:57;99238.65;;;15.87;99.16
12536;BME280;6334;48.696;2.114;2022-09-09T02:03:29;99236.33;;;15.83;99.20
12536;BME280;6334;48.696;2.114;2022-09-09T02:06:36;99233.59;;;15.76;99.66
12536;BME280;6334;48.696;2.114;2022-09-09T02:08:50;99226.65;;;15.90;99.39
12536;BME280;6334;48.696;2.114;2022-09-09T02:11:18;99224.38;;;15.89;99.51
12536;BME280;6334;48.696;2.114;2022-09-09T02:13:48;99208.47;;;15.93;98.90
12536;BME280;6334;48.696;2.114;2022-09-09T02:16:25;99220.56;;;15.90;99.33
12536;BME280;6334;48.696;2.114;2022-09-09T02:18:59;99218.08;;;15.89;99.51
12536;BME280;6334;48.696;2.114;2022-09-09T02:21:25;99216.19;;;15.83;99.58
12536;BME280;6334;48.696;2.114;2022-09-09T02:23:56;99213.85;;;15.81;99.27
12536;BME280;6334;48.696;2.114;2022-09-09T02:26:26;99212.55;;;15.81;99.65
12536;BME280;6334;48.696;2.114;2022-09-09T02:28:56;99214.92;;;15.90;99.35
12536;BME280;6334;48.696;2.114;2022-09-09T02:31:27;99211.97;;;15.77;99.78
12536;BME280;6334;48.696;2.114;2022-09-09T02:33:58;99219.04;;;15.67;100.00
12536;BME280;6334;48.696;2.114;2022-09-09T02:36:29;99219.66;;;15.84;99.77
12536;BME280;6334;48.696;2.114;2022-09-09T02:38:58;99215.54;;;15.81;100.00
12536;BME280;6334;48.696;2.114;2022-09-09T02:41:32;99215.20;;;15.85;99.42
12536;BME280;6334;48.696;2.114;2022-09-09T02:44:02;99215.47;;;15.73;100.00
12536;BME280;6334;48.696;2.114;2022-09-09T02:50:01;99215.11;;;15.72;100.00
12536;BME280;6334;48.696;2.114;2022-09-09T02:51:53;99209.20;;;15.88;99.90
12536;BME280;6334;48.696;2.114;2022-09-09T02:54:25;99211.53;;;15.70;100.00
12536;BME280;6334;48.696;2.114;2022-09-09T02:56:53;99212.65;;;15.83;100.00
12536;BME280;6334;48.696;2.114;2022-09-09T02:59:24;99210.66;;;15.80;100.00
12536;BME280;6334;48.696;2.114;2022-09-09T03:01:53;99213.55;;;15.81;100.00
12536;BME280;6334;48.696;2.114;2022-09-09T03:04:25;99209.56;;;15.84;100.00
12536;BME280;6334;48.696;2.114;2022-09-09T03:06:56;99210.45;;;15.78;100.00
12536;BME280;6334;48.696;2.114;2022-09-09T03:09:26;99213.27;;;15.92;100.00
12536;BME280;6334;48.696;2.114;2022-09-09T03:11:56;99215.09;;;15.86;100.00
12536;BME280;6334;48.696;2.114;2022-09-09T03:14:27;99210.39;;;15.82;100.00
12536;BME280;6334;48.696;2.114;2022-09-09T03:16:57;99209.13;;;15.88;100.00
12536;BME280;6334;48.696;2.114;2022-09-09T03:19:28;99212.22;;;15.85;100.00
12536;BME280;6334;48.696;2.114;2022-09-09T03:21:58;99216.03;;;15.84;100.00
12536;BME280;6334;48.696;2.114;2022-09-09T03:24:29;99212.92;;;15.90;99.97
12536;BME280;6334;48.696;2.114;2022-09-09T03:26:59;99210.20;;;15.91;100.00
12536;BME280;6334;48.696;2.114;2022-09-09T03:29:31;99217.09;;;15.78;100.00
12536;BME280;6334;48.696;2.114;2022-09-09T03:32:02;99219.72;;;15.97;99.75
12536;BME280;6334;48.696;2.114;2022-09-09T03:34:32;99221.01;;;15.84;100.00
12536;BME280;6334;48.696;2.114;2022-09-09T03:37:03;99225.95;;;15.92;100.00
12536;BME280;6334;48.696;2.114;2022-09-09T03:39:33;99226.39;;;15.72;100.00
12536;BME280;6334;48.696;2.114;2022-09-09T03:42:05;99231.05;;;15.82;100.00
12536;BME280;6334;48.696;2.114;2022-09-09T03:44:35;99227.15;;;15.90;100.00
12536;BME280;6334;48.696;2.114;2022-09-09T03:47:05;99225.80;;;15.76;100.00
12536;BME280;6334;48.696;2.114;2022-09-09T03:49:36;99212.70;;;15.91;100.00
12536;BME280;6334;48.696;2.114;2022-09-09T03:52:08;99212.92;;;15.74;100.00
12536;BME280;6334;48.696;2.114;2022-09-09T03:54:37;99222.09;;;15.85;100.00
12536;BME280;6334;48.696;2.114;2022-09-09T03:57:09;99226.64;;;15.67;100.00
12536;BME280;6334;48.696;2.114;2022-09-09T03:59:39;99237.83;;;15.79;100.00
12536;BME280;6334;48.696;2.114;2022-09-09T04:02:09;99231.95;;;15.79;100.00
12536;BME280;6334;48.696;2.114;2022-09-09T04:04:40;99235.83;;;15.83;100.00
12536;BME280;6334;48.696;2.114;2022-09-09T04:07:10;99231.45;;;15.78;100.00
12536;BME280;6334;48.696;2.114;2022-09-09T04:09:41;99219.59;;;15.62;100.00
12536;BME280;6334;48.696;2.114;2022-09-09T04:12:11;99229.20;;;15.75;100.00
12536;BME280;6334;48.696;2.114;2022-09-09T04:14:42;99226.56;;;15.66;100.00
12536;BME280;6334;48.696;2.114;2022-09-09T04:17:12;99220.17;;;15.66;100.00
12536;BME280;6334;48.696;2.114;2022-09-09T04:19:43;99220.01;;;15.77;100.00
12536;BME280;6334;48.696;2.114;2022-09-09T04:22:13;99214.47;;;15.81;100.00
12536;BME280;6334;48.696;2.114;2022-09-09T04:24:43;99222.28;;;15.61;100.00
12536;BME280;6334;48.696;2.114;2022-09-09T04:27:14;99218.94;;;15.65;100.00
12536;BME280;6334;48.696;2.114;2022-09-09T04:29:44;99216.11;;;15.66;100.00
12536;BME280;6334;48.696;2.114;2022-09-09T04:32:15;99215.83;;;15.55;100.00
12536;BME280;6334;48.696;2.114;2022-09-09T04:34:45;99213.75;;;15.54;100.00
12536;BME280;6334;48.696;2.114;2022-09-09T04:37:16;99207.06;;;15.64;100.00
12536;BME280;6334;48.696;2.114;2022-09-09T04:39:46;99216.77;;;15.63;100.00
12536;BME280;6334;48.696;2.114;2022-09-09T04:42:19;99217.61;;;15.71;100.00
12536;BME280;6334;48.696;2.114;2022-09-09T04:44:50;99220.25;;;15.64;100.00
12536;BME280;6334;48.696;2.114;2022-09-09T04:47:20;99219.07;;;15.70;100.00
12536;BME280;6334;48.696;2.114;2022-09-09T04:49:51;99215.29;;;15.71;100.00
12536;BME280;6334;48.696;2.114;2022-09-09T04:52:21;99216.59;;;15.79;100.00
12536;BME280;6334;48.696;2.114;2022-09-09T04:54:52;99218.36;;;15.82;100.00
12536;BME280;6334;48.696;2.114;2022-09-09T04:57:22;99212.38;;;15.71;100.00
12536;BME280;6334;48.696;2.114;2022-09-09T04:59:53;99218.05;;;15.80;100.00
12536;BME280;6334;48.696;2.114;2022-09-09T05:02:23;99219.30;;;15.64;100.00
12536;BME280;6334;48.696;2.114;2022-09-09T05:04:54;99220.58;;;15.79;100.00
12536;BME280;6334;48.696;2.114;2022-09-09T05:07:24;99227.03;;;15.73;100.00
12536;BME280;6334;48.696;2.114;2022-09-09T05:09:54;99228.31;;;15.87;100.00
12536;BME280;6334;48.696;2.114;2022-09-09T05:12:25;99209.98;;;15.85;100.00
12536;BME280;6334;48.696;2.114;2022-09-09T05:14:55;99224.50;;;15.79;100.00
12536;BME280;6334;48.696;2.114;2022-09-09T05:17:26;99218.91;;;15.92;100.00
12536;BME280;6334;48.696;2.114;2022-09-09T05:19:56;99228.92;;;15.94;100.00
12536;BME280;6334;48.696;2.114;2022-09-09T05:22:27;99236.33;;;15.89;100.00
12536;BME280;6334;48.696;2.114;2022-09-09T05:24:57;99235.94;;;15.79;100.00
12536;BME280;6334;48.696;2.114;2022-09-09T05:27:28;99242.67;;;15.87;100.00
12536;BME280;6334;48.696;2.114;2022-09-09T05:29:58;99248.34;;;15.94;100.00
12536;BME280;6334;48.696;2.114;2022-09-09T05:32:29;99252.62;;;15.91;100.00
12536;BME280;6334;48.696;2.114;2022-09-09T05:34:59;99252.64;;;16.15;100.00
12536;BME280;6334;48.696;2.114;2022-09-09T05:37:31;99257.31;;;16.00;100.00
12536;BME280;6334;48.696;2.114;2022-09-09T05:40:01;99255.66;;;15.91;100.00
12536;BME280;6334;48.696;2.114;2022-09-09T05:42:31;99255.99;;;15.97;100.00
12536;BME280;6334;48.696;2.114;2022-09-09T05:45:02;99258.94;;;16.02;100.00
12536;BME280;6334;48.696;2.114;2022-09-09T05:47:32;99261.72;;;16.00;100.00
12536;BME280;6334;48.696;2.114;2022-09-09T05:50:03;99249.34;;;15.90;100.00
12536;BME280;6334;48.696;2.114;2022-09-09T05:52:34;99255.94;;;15.91;100.00
12536;BME280;6334;48.696;2.114;2022-09-09T05:55:05;99252.13;;;15.91;100.00
12536;BME280;6334;48.696;2.114;2022-09-09T05:57:35;99248.80;;;15.83;100.00
12536;BME280;6334;48.696;2.114;2022-09-09T06:00:06;99244.05;;;15.95;100.00
12536;BME280;6334;48.696;2.114;2022-09-09T06:02:36;99239.22;;;15.96;100.00
12536;BME280;6334;48.696;2.114;2022-09-09T06:05:07;99234.24;;;16.01;100.00
12536;BME280;6334;48.696;2.114;2022-09-09T06:07:37;99246.34;;;15.98;100.00
12536;BME280;6334;48.696;2.114;2022-09-09T06:10:09;99246.73;;;16.10;100.00
12536;BME280;6334;48.696;2.114;2022-09-09T06:12:42;99247.88;;;16.09;100.00
12536;BME280;6334;48.696;2.114;2022-09-09T06:15:12;99247.91;;;16.02;100.00
12536;BME280;6334;48.696;2.114;2022-09-09T06:17:44;99245.92;;;15.96;100.00
12536;BME280;6334;48.696;2.114;2022-09-09T06:20:15;99256.97;;;16.09;100.00
12536;BME280;6334;48.696;2.114;2022-09-09T06:22:45;99257.13;;;16.06;100.00
12536;BME280;6334;48.696;2.114;2022-09-09T06:25:16;99250.55;;;16.18;100.00
12536;BME280;6334;48.696;2.114;2022-09-09T06:27:49;99248.71;;;16.15;100.00
12536;BME280;6334;48.696;2.114;2022-09-09T06:30:19;99245.94;;;16.41;100.00
12536;BME280;6334;48.696;2.114;2022-09-09T06:32:51;99249.03;;;16.18;100.00
12536;BME280;6334;48.696;2.114;2022-09-09T06:35:21;99242.05;;;16.23;100.00
12536;BME280;6334;48.696;2.114;2022-09-09T06:37:52;99256.41;;;16.26;100.00
12536;BME280;6334;48.696;2.114;2022-09-09T06:40:22;99253.91;;;16.34;100.00
12536;BME280;6334;48.696;2.114;2022-09-09T06:42:53;99247.72;;;16.34;100.00
12536;BME280;6334;48.696;2.114;2022-09-09T06:45:26;99248.90;;;16.31;100.00
12536;BME280;6334;48.696;2.114;2022-09-09T06:47:55;99244.14;;;16.35;100.00
12536;BME280;6334;48.696;2.114;2022-09-09T06:50:25;99245.98;;;16.39;100.00
12536;BME280;6334;48.696;2.114;2022-09-09T06:52:56;99249.61;;;16.37;100.00
12536;BME280;6334;48.696;2.114;2022-09-09T06:55:27;99246.58;;;16.33;100.00
12536;BME280;6334;48.696;2.114;2022-09-09T06:57:57;99253.30;;;16.36;100.00
12536;BME280;6334;48.696;2.114;2022-09-09T07:00:28;99254.84;;;16.42;100.00
12536;BME280;6334;48.696;2.114;2022-09-09T07:02:58;99252.70;;;16.39;100.00
12536;BME280;6334;48.696;2.114;2022-09-09T07:05:29;99253.97;;;16.49;99.78
12536;BME280;6334;48.696;2.114;2022-09-09T07:08:00;99256.50;;;16.43;99.72
12536;BME280;6334;48.696;2.114;2022-09-09T07:10:31;99253.58;;;16.46;99.29
12536;BME280;6334;48.696;2.114;2022-09-09T07:13:03;99257.31;;;16.70;98.93
12536;BME280;6334;48.696;2.114;2022-09-09T07:15:34;99254.75;;;16.81;98.51
12536;BME280;6334;48.696;2.114;2022-09-09T07:18:04;99254.47;;;16.90;97.75
12536;BME280;6334;48.696;2.114;2022-09-09T07:20:36;99259.94;;;17.06;97.07
12536;BME280;6334;48.696;2.114;2022-09-09T07:23:06;99259.13;;;16.90;97.22
12536;BME280;6334;48.696;2.114;2022-09-09T07:25:37;99262.55;;;16.89;98.16
12536;BME280;6334;48.696;2.114;2022-09-09T07:28:07;99269.31;;;16.69;98.27
12536;BME280;6334;48.696;2.114;2022-09-09T07:30:38;99276.75;;;16.82;98.03
12536;BME280;6334;48.696;2.114;2022-09-09T07:33:09;99286.29;;;16.82;98.22
12536;BME280;6334;48.696;2.114;2022-09-09T07:35:39;99282.02;;;16.79;97.77
12536;BME280;6334;48.696;2.114;2022-09-09T07:38:09;99281.14;;;16.92;97.46
12536;BME280;6334;48.696;2.114;2022-09-09T07:40:40;99287.11;;;17.04;97.34
12536;BME280;6334;48.696;2.114;2022-09-09T07:43:10;99282.05;;;17.19;96.58
12536;BME280;6334;48.696;2.114;2022-09-09T07:45:44;99284.33;;;17.27;96.06
12536;BME280;6334;48.696;2.114;2022-09-09T07:48:14;99283.78;;;17.07;96.26
12536;BME280;6334;48.696;2.114;2022-09-09T07:50:45;99278.20;;;17.05;95.82
12536;BME280;6334;48.696;2.114;2022-09-09T07:53:15;99286.64;;;17.16;95.76
12536;BME280;6334;48.696;2.114;2022-09-09T07:55:46;99281.23;;;17.01;95.62
12536;BME280;6334;48.696;2.114;2022-09-09T07:58:16;99292.47;;;17.02;95.77
12536;BME280;6334;48.696;2.114;2022-09-09T08:00:47;99291.02;;;16.96;95.22
12536;BME280;6334;48.696;2.114;2022-09-09T08:03:18;99293.23;;;17.12;95.80
12536;BME280;6334;48.696;2.114;2022-09-09T08:05:51;99298.05;;;17.14;94.72
12536;BME280;6334;48.696;2.114;2022-09-09T08:08:21;99297.00;;;17.30;94.46
12536;BME280;6334;48.696;2.114;2022-09-09T08:10:52;99302.80;;;17.20;94.43
12536;BME280;6334;48.696;2.114;2022-09-09T08:13:22;99303.86;;;17.34;94.15
12536;BME280;6334;48.696;2.114;2022-09-09T08:15:53;99302.85;;;17.30;93.85
12536;BME280;6334;48.696;2.114;2022-09-09T08:18:24;99309.72;;;17.36;93.79
12536;BME280;6334;48.696;2.114;2022-09-09T08:20:54;99309.53;;;17.39;92.94
12536;BME280;6334;48.696;2.114;2022-09-09T08:23:25;99305.67;;;17.47;93.18
12536;BME280;6334;48.696;2.114;2022-09-09T08:26:02;99309.66;;;17.49;92.93
12536;BME280;6334;48.696;2.114;2022-09-09T08:28:27;99314.30;;;17.66;92.79
12536;BME280;6334;48.696;2.114;2022-09-09T08:31:04;99309.63;;;17.43;91.93
12536;BME280;6334;48.696;2.114;2022-09-09T08:33:28;99320.09;;;17.67;91.72
12536;BME280;6334;48.696;2.114;2022-09-09T08:35:58;99317.52;;;17.57;91.91
12536;BME280;6334;48.696;2.114;2022-09-09T08:38:29;99322.93;;;17.45;91.86
12536;BME280;6334;48.696;2.114;2022-09-09T08:43:47;99319.11;;;17.55;92.17
12536;BME280;6334;48.696;2.114;2022-09-09T08:46:22;99324.50;;;17.79;91.48
12536;BME280;6334;48.696;2.114;2022-09-09T08:49:05;99328.59;;;17.75;90.80
12536;BME280;6334;48.696;2.114;2022-09-09T08:51:29;99333.14;;;17.78;91.57
12536;BME280;6334;48.696;2.114;2022-09-09T08:54:00;99334.62;;;17.61;92.06
12536;BME280;6334;48.696;2.114;2022-09-09T08:56:31;99332.47;;;17.46;92.25
12536;BME280;6334;48.696;2.114;2022-09-09T08:59:04;99338.75;;;17.52;92.28
12536;BME280;6334;48.696;2.114;2022-09-09T09:01:55;99339.34;;;17.60;91.32
12536;BME280;6334;48.696;2.114;2022-09-09T09:04:38;99342.50;;;17.68;91.12
12536;BME280;6334;48.696;2.114;2022-09-09T09:09:42;99344.08;;;17.62;90.65
12536;BME280;6334;48.696;2.114;2022-09-09T09:12:19;99349.14;;;17.75;90.45
12536;BME280;6334;48.696;2.114;2022-09-09T09:14:51;99354.83;;;17.85;90.37
12536;BME280;6334;48.696;2.114;2022-09-09T09:17:23;99353.59;;;17.71;90.37
12536;BME280;6334;48.696;2.114;2022-09-09T09:19:52;99355.87;;;17.89;90.17
12536;BME280;6334;48.696;2.114;2022-09-09T09:22:25;99360.20;;;18.07;88.83
12536;BME280;6334;48.696;2.114;2022-09-09T09:27:49;99358.44;;;18.01;88.52
12536;BME280;6334;48.696;2.114;2022-09-09T09:30:22;99369.66;;;17.93;89.71
12536;BME280;6334;48.696;2.114;2022-09-09T09:35:32;99379.98;;;17.80;90.16
12536;BME280;6334;48.696;2.114;2022-09-09T09:38:10;99394.02;;;17.96;89.52
12536;BME280;6334;48.696;2.114;2022-09-09T09:40:33;99389.81;;;17.82;89.67
12536;BME280;6334;48.696;2.114;2022-09-09T09:43:03;99393.64;;;17.82;89.69
12536;BME280;6334;48.696;2.114;2022-09-09T09:45:40;99400.74;;;18.00;89.94
12536;BME280;6334;48.696;2.114;2022-09-09T09:48:06;99397.45;;;18.04;89.03
12536;BME280;6334;48.696;2.114;2022-09-09T09:50:39;99399.04;;;18.13;89.01
12536;BME280;6334;48.696;2.114;2022-09-09T09:53:16;99398.28;;;18.04;88.91
12536;BME280;6334;48.696;2.114;2022-09-09T09:55:44;99403.75;;;18.28;89.34
12536;BME280;6334;48.696;2.114;2022-09-09T09:58:13;99403.23;;;18.45;88.90
12536;BME280;6334;48.696;2.114;2022-09-09T10:00:37;99402.36;;;18.52;88.71
12536;BME280;6334;48.696;2.114;2022-09-09T10:03:23;99397.38;;;18.32;87.98
12536;BME280;6334;48.696;2.114;2022-09-09T10:05:49;99406.12;;;18.24;87.58
12536;BME280;6334;48.696;2.114;2022-09-09T10:08:20;99414.33;;;18.30;87.39
12536;BME280;6334;48.696;2.114;2022-09-09T10:13:53;99404.80;;;18.31;86.50
12536;BME280;6334;48.696;2.114;2022-09-09T10:19:00;99409.25;;;18.19;86.55
12536;BME280;6334;48.696;2.114;2022-09-09T10:27:05;99412.95;;;18.17;88.77
12536;BME280;6334;48.696;2.114;2022-09-09T10:29:44;99418.05;;;18.20;87.47
12536;BME280;6334;48.696;2.114;2022-09-09T10:32:41;99415.50;;;18.35;85.95
12536;BME280;6334;48.696;2.114;2022-09-09T10:35:30;99421.42;;;18.51;85.46
12536;BME280;6334;48.696;2.114;2022-09-09T10:51:51;99424.01;;;18.69;86.74
12536;BME280;6334;48.696;2.114;2022-09-09T10:57:01;99416.91;;;18.93;84.91
12536;BME280;6334;48.696;2.114;2022-09-09T10:59:31;99423.03;;;18.80;83.40
12536;BME280;6334;48.696;2.114;2022-09-09T11:04:53;99421.21;;;18.79;84.50
12536;BME280;6334;48.696;2.114;2022-09-09T11:07:23;99409.09;;;18.77;83.20
12536;BME280;6334;48.696;2.114;2022-09-09T11:09:50;99412.63;;;18.81;83.04
12536;BME280;6334;48.696;2.114;2022-09-09T11:12:20;99411.26;;;19.14;81.89
12536;BME280;6334;48.696;2.114;2022-09-09T11:15:02;99405.97;;;19.34;79.37
12536;BME280;6334;48.696;2.114;2022-09-09T11:17:45;99405.45;;;19.41;79.61
12536;BME280;6334;48.696;2.114;2022-09-09T11:20:14;99408.87;;;19.11;79.52
12536;BME280;6334;48.696;2.114;2022-09-09T11:22:58;99395.41;;;19.12;79.03
12536;BME280;6334;48.696;2.114;2022-09-09T11:25:30;99404.19;;;19.21;78.58
12536;BME280;6334;48.696;2.114;2022-09-09T11:44:44;99406.56;;;19.89;76.90
12536;BME280;6334;48.696;2.114;2022-09-09T11:49:48;99402.92;;;20.06;75.86
12536;BME280;6334;48.696;2.114;2022-09-09T11:52:25;99400.75;;;19.92;76.12
12536;BME280;6334;48.696;2.114;2022-09-09T11:54:55;99396.75;;;19.57;76.86
12536;BME280;6334;48.696;2.114;2022-09-09T11:57:35;99409.94;;;19.63;77.35
12536;BME280;6334;48.696;2.114;2022-09-09T12:00:05;99412.26;;;19.81;75.95
12536;BME280;6334;48.696;2.114;2022-09-09T12:02:36;99416.97;;;20.10;76.17
12536;BME280;6334;48.696;2.114;2022-09-09T12:05:12;99413.70;;;19.92;75.12
12536;BME280;6334;48.696;2.114;2022-09-09T12:07:52;99414.55;;;19.94;75.13
12536;BME280;6334;48.696;2.114;2022-09-09T12:10:32;99403.88;;;20.09;75.24
12536;BME280;6334;48.696;2.114;2022-09-09T12:13:22;99424.66;;;20.05;75.39
12536;BME280;6334;48.696;2.114;2022-09-09T12:15:49;99428.81;;;19.61;74.73
12536;BME280;6334;48.696;2.114;2022-09-09T12:18:34;99434.73;;;19.67;74.75
12536;BME280;6334;48.696;2.114;2022-09-09T12:21:58;99437.14;;;19.72;74.57
12536;BME280;6334;48.696;2.114;2022-09-09T12:23:47;99427.58;;;20.11;74.19
12536;BME280;6334;48.696;2.114;2022-09-09T12:28:55;99425.08;;;20.11;74.57
12536;BME280;6334;48.696;2.114;2022-09-09T12:34:17;99422.32;;;19.84;74.40
12536;BME280;6334;48.696;2.114;2022-09-09T12:36:42;99420.42;;;19.92;72.85
12536;BME280;6334;48.696;2.114;2022-09-09T12:39:21;99423.48;;;20.10;73.55
12536;BME280;6334;48.696;2.114;2022-09-09T12:41:52;99418.01;;;20.13;73.31
12536;BME280;6334;48.696;2.114;2022-09-09T12:44:22;99419.25;;;19.87;73.85
12536;BME280;6334;48.696;2.114;2022-09-09T12:46:52;99416.88;;;19.71;74.10
12536;BME280;6334;48.696;2.114;2022-09-09T12:49:32;99424.75;;;19.60;74.19
12536;BME280;6334;48.696;2.114;2022-09-09T12:52:07;99418.92;;;19.44;74.35
12536;BME280;6334;48.696;2.114;2022-09-09T12:54:36;99418.70;;;19.51;74.65
12536;BME280;6334;48.696;2.114;2022-09-09T12:57:09;99424.63;;;19.32;74.57
12536;BME280;6334;48.696;2.114;2022-09-09T12:59:38;99421.33;;;19.29;74.57
12536;BME280;6334;48.696;2.114;2022-09-09T13:04:50;99437.00;;;18.83;84.14
12536;BME280;6334;48.696;2.114;2022-09-09T13:07:20;99454.48;;;18.52;87.88
12536;BME280;6334;48.696;2.114;2022-09-09T13:09:50;99465.82;;;18.42;89.88
12536;BME280;6334;48.696;2.114;2022-09-09T13:12:21;99481.39;;;18.27;92.88
12536;BME280;6334;48.696;2.114;2022-09-09T13:14:52;99474.55;;;18.18;95.85
12536;BME280;6334;48.696;2.114;2022-09-09T13:17:22;99486.54;;;18.30;96.89
12536;BME280;6334;48.696;2.114;2022-09-09T13:19:52;99483.19;;;18.50;97.50
12536;BME280;6334;48.696;2.114;2022-09-09T13:25:00;99476.51;;;19.04;97.05
12536;BME280;6334;48.696;2.114;2022-09-09T13:27:33;99464.50;;;19.51;94.77
12536;BME280;6334;48.696;2.114;2022-09-09T13:30:19;99465.84;;;19.54;95.32
12536;BME280;6334;48.696;2.114;2022-09-09T13:32:34;99457.12;;;19.46;95.86
12536;BME280;6334;48.696;2.114;2022-09-09T13:35:22;99470.02;;;19.10;99.83
12536;BME280;6334;48.696;2.114;2022-09-09T13:37:36;99472.84;;;19.12;96.72
12536;BME280;6334;48.696;2.114;2022-09-09T13:40:06;99470.62;;;19.14;96.51
12536;BME280;6334;48.696;2.114;2022-09-09T13:42:37;99472.73;;;19.18;96.84
12536;BME280;6334;48.696;2.114;2022-09-09T13:45:14;99468.55;;;18.47;100.00
12536;BME280;6334;48.696;2.114;2022-09-09T13:47:37;99466.30;;;18.40;100.00
12536;BME280;6334;48.696;2.114;2022-09-09T13:50:26;99465.09;;;18.33;100.00
12536;BME280;6334;48.696;2.114;2022-09-09T13:52:58;99465.91;;;18.53;100.00
12536;BME280;6334;48.696;2.114;2022-09-09T13:55:28;99469.39;;;18.45;100.00
12536;BME280;6334;48.696;2.114;2022-09-09T13:58:02;99466.55;;;18.73;100.00
12536;BME280;6334;48.696;2.114;2022-09-09T14:00:30;99462.81;;;18.74;100.00
12536;BME280;6334;48.696;2.114;2022-09-09T14:03:00;99466.42;;;18.34;100.00
12536;BME280;6334;48.696;2.114;2022-09-09T14:05:31;99460.65;;;18.63;100.00
12536;BME280;6334;48.696;2.114;2022-09-09T14:08:00;99466.49;;;18.53;100.00
12536;BME280;6334;48.696;2.114;2022-09-09T14:10:31;99461.16;;;19.13;98.75
12536;BME280;6334;48.696;2.114;2022-09-09T14:13:04;99465.11;;;18.29;100.00
12536;BME280;6334;48.696;2.114;2022-09-09T14:15:35;99466.63;;;18.99;100.00
12536;BME280;6334;48.696;2.114;2022-09-09T14:18:09;99469.44;;;18.61;100.00
12536;BME280;6334;48.696;2.114;2022-09-09T14:20:37;99470.18;;;18.10;100.00
12536;BME280;6334;48.696;2.114;2022-09-09T14:23:09;99485.80;;;17.89;100.00
12536;BME280;6334;48.696;2.114;2022-09-09T14:25:41;99488.83;;;17.83;100.00
12536;BME280;6334;48.696;2.114;2022-09-09T14:28:11;99488.51;;;17.94;100.00
12536;BME280;6334;48.696;2.114;2022-09-09T14:30:43;99452.98;;;18.08;100.00
12536;BME280;6334;48.696;2.114;2022-09-09T14:33:14;99482.81;;;17.90;100.00
12536;BME280;6334;48.696;2.114;2022-09-09T14:35:44;99485.34;;;17.71;100.00
12536;BME280;6334;48.696;2.114;2022-09-09T14:38:14;99479.84;;;17.85;100.00
12536;BME280;6334;48.696;2.114;2022-09-09T14:40:44;99484.22;;;18.11;100.00
12536;BME280;6334;48.696;2.114;2022-09-09T14:43:15;99480.06;;;17.89;100.00
12536;BME280;6334;48.696;2.114;2022-09-09T14:45:46;99472.38;;;17.94;100.00
12536;BME280;6334;48.696;2.114;2022-09-09T14:48:17;99473.95;;;18.06;100.00
12536;BME280;6334;48.696;2.114;2022-09-09T14:50:48;99468.80;;;17.91;100.00
12536;BME280;6334;48.696;2.114;2022-09-09T14:53:19;99476.83;;;18.00;100.00
12536;BME280;6334;48.696;2.114;2022-09-09T14:55:50;99471.06;;;18.17;100.00
12536;BME280;6334;48.696;2.114;2022-09-09T14:58:21;99473.76;;;18.20;100.00
12536;BME280;6334;48.696;2.114;2022-09-09T15:00:51;99471.05;;;18.15;100.00
12536;BME280;6334;48.696;2.114;2022-09-09T15:03:22;99467.13;;;18.08;100.00
12536;BME280;6334;48.696;2.114;2022-09-09T15:05:52;99471.95;;;18.00;100.00
12536;BME280;6334;48.696;2.114;2022-09-09T15:08:22;99462.91;;;18.15;100.00
12536;BME280;6334;48.696;2.114;2022-09-09T15:10:59;99456.44;;;18.00;100.00
12536;BME280;6334;48.696;2.114;2022-09-09T15:13:29;99459.75;;;18.05;100.00
12536;BME280;6334;48.696;2.114;2022-09-09T15:16:06;99457.28;;;18.23;100.00
12536;BME280;6334;48.696;2.114;2022-09-09T15:18:36;99458.64;;;18.16;100.00
12536;BME280;6334;48.696;2.114;2022-09-09T15:21:12;99458.95;;;18.09;100.00
12536;BME280;6334;48.696;2.114;2022-09-09T15:23:42;99464.98;;;18.18;100.00